Madison, SD

4:38 AM CDT on October 17, 2017 (GMT -0500)
Madison Municipal

Weather History for KMDS - January, 2014

Change the Weather History Date:

Saturday, January 11, 2014

  Actual Average Record
Temperature  
Mean Temperature 22 °F -  
Max Temperature 28 °F 18 °F 35 °F (2012)
Min Temperature 17 °F -1 °F -5 °F (2011)
Degree Days  
Heating Degree Days 42    
Moisture  
Dew Point 24 °F    
Average Humidity 100    
Maximum Humidity 100    
Minimum Humidity 93    
Precipitation  
Precipitation 0.04 in - - ()
Sea Level Pressure  
Sea Level Pressure 29.63 in    
Wind  
Wind Speed 14 mph (West)    
Max Wind Speed 23 mph    
Max Gust Speed 30 mph    
Visibility 8 miles    
Events Rain , Snow    
Averages and records for this station are not official NWS values.
T = Trace of Precipitation, MM = Missing Value Source: NWS Daily Summary

Daily Weather History Graph

Daily Weather History Graph

Search for Another Location

Airport or City:

Trip Planner

Search our weather history database for the weather conditions in past years. The results will help you decide how hot, cold, wet, or windy it might be!

Date:

Astronomy

Jan. 11, 2014 Rise Set
Actual Time 8:01 AM CST 5:11 PM CST
Civil Twilight 7:29 AM CST 5:43 PM CST
Nautical Twilight 6:53 AM CST 6:19 PM CST
Astronomical Twilight 6:18 AM CST 6:54 PM CST
Moon 1:57 PM CST (1/11) 4:05 AM CST (1/11)
Length of Visible Light 10h 14m
Length of Day
9h 09m
Waxing Gibbous, 83% of the Moon is Illuminated
Jan 11
Waxing Gibbous
Jan 15
Full
Jan 23
Last Quarter
Jan 30
New
Feb 6
First Quarter

Hourly Weather History & Observations

Time (CST) Temp. Windchill Dew Point Humidity Pressure Visibility Wind Dir Wind Speed Gust Speed Precip Events Conditions
12:05 AM 24.8 °F 14.6 °F 24.8 °F 100% 29.53 in 10.0 mi West 10.4 mph - N/A   Clear
12:25 AM 24.8 °F 13.4 °F 24.8 °F 100% 29.53 in 10.0 mi WNW 12.7 mph 17.3 mph N/A   Clear
12:45 AM 24.8 °F 14.0 °F 24.8 °F 100% 29.53 in 10.0 mi West 11.5 mph - N/A   Clear
1:05 AM 24.8 °F 13.4 °F 24.8 °F 100% 29.53 in 10.0 mi West 12.7 mph - N/A   Clear
1:25 AM 24.8 °F 14.6 °F 24.8 °F 100% 29.52 in 10.0 mi West 10.4 mph - N/A   Clear
1:45 AM 24.8 °F 14.6 °F 24.8 °F 100% 29.52 in 10.0 mi West 10.4 mph - N/A   Clear
2:05 AM 24.8 °F 14.6 °F 24.8 °F 100% 29.53 in 10.0 mi West 10.4 mph - N/A   Clear
2:25 AM 23.0 °F 11.1 °F 23.0 °F 100% 29.54 in 10.0 mi West 12.7 mph - N/A   Clear
2:45 AM 24.8 °F 13.4 °F 24.8 °F 100% 29.54 in 10.0 mi WNW 12.7 mph 20.7 mph N/A   Clear
3:05 AM 23.0 °F 10.6 °F 23.0 °F 100% 29.55 in 10.0 mi WNW 13.8 mph - N/A   Clear
3:25 AM 23.0 °F 10.6 °F 23.0 °F 100% 29.55 in 10.0 mi NW 13.8 mph - N/A   Clear
3:45 AM 23.0 °F 11.1 °F 23.0 °F 100% 29.56 in 10.0 mi NW 12.7 mph - N/A   Clear
4:05 AM 21.2 °F 8.9 °F 21.2 °F 100% 29.57 in 10.0 mi NW 12.7 mph - N/A   Clear
4:25 AM 19.4 °F 5.5 °F 19.4 °F 100% 29.58 in 10.0 mi NW 15.0 mph 21.9 mph N/A   Clear
4:45 AM 19.4 °F 6.0 °F 19.4 °F 100% 29.59 in 10.0 mi WNW 13.8 mph - N/A   Clear
5:05 AM 19.4 °F 4.5 °F 19.4 °F 100% 29.59 in 10.0 mi NW 17.3 mph 21.9 mph N/A   Clear
5:25 AM 19.4 °F 3.2 °F 19.4 °F 100% 29.60 in 10.0 mi NW 20.7 mph - N/A   Clear
5:45 AM 17.6 °F 1.3 °F 17.6 °F 100% 29.60 in 10.0 mi NW 19.6 mph 25.3 mph N/A   Clear
6:05 AM 19.4 °F 3.6 °F 19.4 °F 100% 29.61 in 10.0 mi NW 19.6 mph 28.8 mph N/A   Mostly Cloudy
6:25 AM 19.4 °F 3.6 °F 19.4 °F 100% 29.62 in 9.0 mi NW 19.6 mph - N/A   Overcast
6:45 AM 21.2 °F 6.0 °F 21.2 °F 100% 29.63 in 1.8 mi NW 19.6 mph 25.3 mph N/A   Overcast
7:05 AM 23.0 °F 8.0 °F 23.0 °F 100% 29.64 in 7.0 mi NW 20.7 mph 25.3 mph N/A   Overcast
7:25 AM 23.0 °F 8.3 °F 23.0 °F 100% 29.64 in 4.0 mi NNW 19.6 mph 26.5 mph N/A Rain Light Freezing Rain
7:45 AM 23.0 °F 8.0 °F 23.0 °F 100% 29.65 in 2.0 mi NNW 20.7 mph 29.9 mph N/A Snow Light Snow
8:05 AM 23.0 °F 8.0 °F 23.0 °F 100% 29.66 in 2.5 mi NW 20.7 mph 26.5 mph N/A   Overcast
8:25 AM 23.0 °F 8.3 °F 23.0 °F 100% 29.67 in 3.0 mi NW 19.6 mph 24.2 mph N/A Rain Light Freezing Rain
8:45 AM 23.0 °F 8.7 °F 23.0 °F 100% 29.68 in 4.0 mi NW 18.4 mph 23.0 mph N/A Rain Light Freezing Rain
9:05 AM 23.0 °F 8.3 °F 23.0 °F 100% 29.69 in 2.5 mi NW 19.6 mph 24.2 mph N/A   Overcast
9:25 AM 24.8 °F 10.3 °F 24.8 °F 100% 29.70 in 1.0 mi NW 20.7 mph 25.3 mph N/A   Overcast
9:45 AM 24.8 °F 9.6 °F 24.8 °F 100% 29.71 in 0.8 mi NW 23.0 mph 28.8 mph N/A Rain Light Freezing Rain
10:05 AM 24.8 °F 10.0 °F 24.8 °F 100% 29.71 in 1.0 mi NW 21.9 mph 28.8 mph N/A Snow Light Snow
10:25 AM 24.8 °F 9.6 °F 24.8 °F 100% 29.72 in 1.2 mi NW 23.0 mph 27.6 mph 0.01 in Snow Light Snow
10:45 AM 24.8 °F 10.7 °F 24.8 °F 100% 29.73 in 1.0 mi WNW 19.6 mph - 0.03 in Snow Light Snow
11:05 AM 24.8 °F 10.7 °F 24.8 °F 100% 29.73 in 2.0 mi NW 19.6 mph 24.2 mph N/A Snow Light Snow
11:25 AM 24.8 °F 10.3 °F 24.8 °F 100% 29.73 in 2.0 mi WNW 20.7 mph - N/A Rain Light Freezing Rain
11:45 AM 24.8 °F 11.5 °F 24.8 °F 100% 29.73 in 2.0 mi WNW 17.3 mph 25.3 mph 0.01 in Snow Light Snow
12:05 PM 24.8 °F 11.5 °F 24.8 °F 100% 29.72 in 4.0 mi WNW 17.3 mph - N/A Snow Light Snow
12:25 PM 24.8 °F 13.4 °F 24.8 °F 100% 29.72 in 5.0 mi WNW 12.7 mph - N/A   Overcast
12:45 PM 24.8 °F 11.5 °F 24.8 °F 100% 29.71 in 10.0 mi WNW 17.3 mph - N/A   Overcast
1:05 PM 24.8 °F 12.9 °F 24.8 °F 100% 29.71 in 10.0 mi West 13.8 mph - N/A   Mostly Cloudy
1:25 PM 26.6 °F 15.7 °F 26.6 °F 100% 29.70 in 10.0 mi WNW 12.7 mph - N/A   Scattered Clouds
1:45 PM 26.6 °F 16.8 °F 26.6 °F 100% 29.70 in 10.0 mi West 10.4 mph - N/A   Clear
2:05 PM 26.6 °F 15.7 °F 26.6 °F 100% 29.70 in 10.0 mi West 12.7 mph 16.1 mph N/A   Clear
2:25 PM 26.6 °F 16.8 °F 26.6 °F 100% 29.70 in 10.0 mi West 10.4 mph - N/A   Clear
2:45 PM 28.4 °F 18.5 °F 28.4 °F 100% 29.69 in 10.0 mi West 11.5 mph - N/A   Clear
3:05 PM 28.4 °F 19.1 °F 28.4 °F 100% 29.69 in 10.0 mi West 10.4 mph - N/A   Clear
3:25 PM 28.4 °F 19.7 °F 28.4 °F 100% 29.68 in 10.0 mi West 9.2 mph - N/A   Clear
3:45 PM 28.4 °F 19.1 °F 28.4 °F 100% 29.68 in 10.0 mi WSW 10.4 mph - N/A   Clear
4:05 PM 28.4 °F 18.5 °F 28.4 °F 100% 29.69 in 10.0 mi WSW 11.5 mph - N/A   Clear
4:25 PM 28.4 °F 19.1 °F 28.4 °F 100% 29.69 in 10.0 mi SW 10.4 mph - N/A   Clear
4:45 PM 26.6 °F 18.2 °F 26.6 °F 100% 29.69 in 10.0 mi SW 8.1 mph - N/A   Clear
5:05 PM 26.6 °F 18.2 °F 26.6 °F 100% 29.68 in 10.0 mi SSW 8.1 mph - N/A   Clear
5:25 PM 24.8 °F 16.9 °F 24.8 °F 100% 29.67 in 10.0 mi SW 6.9 mph - N/A   Clear
5:45 PM 24.8 °F 16.1 °F 24.8 °F 100% 29.67 in 10.0 mi SW 8.1 mph - N/A   Clear
6:05 PM 24.8 °F 16.9 °F 24.8 °F 100% 29.66 in 10.0 mi SSW 6.9 mph - N/A   Clear
6:25 PM 23.0 °F 13.9 °F 23.0 °F 100% 29.65 in 10.0 mi SSW 8.1 mph - N/A   Clear
6:45 PM 23.0 °F 13.9 °F 23.0 °F 100% 29.64 in 10.0 mi South 8.1 mph - N/A   Clear
7:05 PM 23.0 °F 12.4 °F 23.0 °F 100% 29.64 in 10.0 mi South 10.4 mph - N/A   Clear
7:25 PM 21.2 °F 9.5 °F 21.2 °F 100% 29.64 in 10.0 mi South 11.5 mph - N/A   Clear
7:45 PM 19.4 °F 7.9 °F 19.4 °F 100% 29.64 in 10.0 mi South 10.4 mph - N/A   Clear
8:05 PM 19.4 °F 7.9 °F 19.4 °F 100% 29.63 in 10.0 mi South 10.4 mph - N/A   Clear
8:25 PM 23.0 °F 13.1 °F 23.0 °F 100% 29.62 in 10.0 mi South 9.2 mph - N/A   Clear
8:45 PM 23.0 °F 13.9 °F 23.0 °F 100% 29.61 in 10.0 mi South 8.1 mph - N/A   Clear
9:05 PM 23.0 °F 12.4 °F 23.0 °F 100% 29.61 in 10.0 mi SSE 10.4 mph - N/A   Clear
9:25 PM 23.0 °F 12.4 °F 23.0 °F 100% 29.60 in 10.0 mi SSE 10.4 mph - N/A   Clear
9:45 PM 23.0 °F 13.1 °F 23.0 °F 100% 29.59 in 10.0 mi South 9.2 mph - N/A   Clear
10:05 PM 24.8 °F 14.0 °F 24.8 °F 100% 29.56 in 10.0 mi South 11.5 mph 16.1 mph N/A   Clear
10:25 PM 24.8 °F 12.9 °F 24.8 °F 100% 29.54 in 10.0 mi South 13.8 mph - N/A   Clear
10:45 PM 26.6 °F 14.3 °F 26.6 °F 100% 29.52 in 10.0 mi South 16.1 mph 20.7 mph N/A   Clear
11:05 PM 26.6 °F 13.1 °F 26.6 °F 100% 29.50 in 10.0 mi South 19.6 mph - N/A   Clear
11:25 PM 28.4 °F 15.8 °F 26.6 °F 93% 29.48 in 10.0 mi SSE 18.4 mph - N/A   Clear
11:45 PM 28.4 °F 16.6 °F 26.6 °F 93% 29.46 in 10.0 mi SSE 16.1 mph 20.7 mph N/A   Clear